Time;durP1;ratioP1;P1;durP2;ratioP2;P2;SDS_P1;SDS_P2;PMS_P1;PMS_P2;Temp;Humidity;BMP_temperature;BMP_pressure;BME280_temperature;BME280_humidity;BME280_pressure;Samples;Min_cycle;Max_cycle;Signal;HPM_P1;HPM_P2
2021/09/26 00:01:18;;;;;;;17.52;13.25;;;19.00;99.90;;;;;;5051528;28;20413;-53
2021/09/26 00:03:43;;;;;;;19.57;14.00;;;18.70;99.90;;;;;;5050860;28;20456;-52
2021/09/26 00:06:09;;;;;;;18.03;13.60;;;18.70;99.90;;;;;;5051241;28;20397;-53
2021/09/26 00:08:34;;;;;;;21.05;14.40;;;18.70;99.90;;;;;;5050877;28;20735;-53
2021/09/26 00:11:05;;;;;;;20.83;14.07;;;18.70;99.90;;;;;;5051618;28;20382;-53
2021/09/26 00:13:38;;;;;;;19.63;14.07;;;18.60;99.90;;;;;;5051194;28;20469;-53
2021/09/26 00:16:06;;;;;;;20.50;13.35;;;18.60;99.90;;;;;;5057529;28;20556;-53
2021/09/26 00:18:32;;;;;;;20.45;13.32;;;18.70;99.90;;;;;;5069756;28;20371;-53
2021/09/26 00:20:58;;;;;;;17.70;12.70;;;18.80;99.90;;;;;;5070922;28;20466;-53
2021/09/26 00:23:25;;;;;;;19.40;12.32;;;18.80;99.90;;;;;;5070092;28;20541;-53
2021/09/26 00:25:55;;;;;;;22.57;14.10;;;18.80;99.90;;;;;;5069819;28;20879;-53
2021/09/26 00:28:22;;;;;;;20.30;13.40;;;18.60;99.90;;;;;;5070612;28;20403;-53
2021/09/26 00:30:49;;;;;;;19.63;13.40;;;18.70;99.90;;;;;;5069980;28;20392;-53
2021/09/26 00:33:15;;;;;;;17.17;12.50;;;18.70;99.90;;;;;;5070934;28;20433;-53
2021/09/26 00:35:41;;;;;;;17.92;12.82;;;18.70;99.90;;;;;;5069746;28;20410;-53
2021/09/26 00:38:07;;;;;;;19.55;13.98;;;18.70;99.90;;;;;;5070885;28;20456;-53
2021/09/26 00:40:33;;;;;;;18.73;12.77;;;18.60;99.90;;;;;;5069823;28;20481;-53
2021/09/26 00:42:59;;;;;;;20.02;13.60;;;18.60;99.90;;;;;;5068719;28;20388;-53
2021/09/26 00:45:25;;;;;;;19.20;13.43;;;18.60;99.90;;;;;;5070073;28;20470;-53
2021/09/26 00:47:51;;;;;;;19.10;13.40;;;18.50;99.90;;;;;;5068794;28;20386;-53
2021/09/26 00:50:17;;;;;;;22.20;14.30;;;18.40;99.90;;;;;;5069457;28;20450;-53
2021/09/26 00:52:46;;;;;;;20.10;13.33;;;18.30;99.90;;;;;;5070107;28;20384;-53
2021/09/26 00:55:12;;;;;;;19.50;12.63;;;18.20;99.90;;;;;;5072215;28;20502;-53
2021/09/26 00:57:40;;;;;;;19.45;12.77;;;18.20;99.90;;;;;;5071737;28;20425;-53
2021/09/26 01:00:07;;;;;;;22.17;13.90;;;18.20;99.90;;;;;;5074608;28;20395;-53
2021/09/26 01:02:33;;;;;;;19.08;13.35;;;18.20;99.90;;;;;;5075903;28;20384;-53
2021/09/26 01:04:59;;;;;;;21.73;13.20;;;18.10;99.90;;;;;;5072658;28;20426;-53
2021/09/26 01:07:34;;;;;;;21.55;14.00;;;18.00;99.90;;;;;;5070598;28;20429;-53
2021/09/26 01:10:06;;;;;;;19.55;13.77;;;17.90;99.90;;;;;;5070543;28;20437;-53
2021/09/26 01:12:41;;;;;;;19.88;14.57;;;17.90;99.90;;;;;;5070662;28;20874;-54
2021/09/26 01:15:15;;;;;;;18.75;12.77;;;17.90;99.90;;;;;;5069729;28;20394;-54
2021/09/26 01:17:49;;;;;;;20.08;13.75;;;17.90;99.90;;;;;;5069199;28;20407;-54
2021/09/26 01:20:39;;;;;;;18.02;12.80;;;17.80;99.90;;;;;;5067609;28;20388;-54
2021/09/26 01:23:05;;;;;;;17.85;12.20;;;17.80;99.90;;;;;;5067480;28;20849;-54
2021/09/26 01:26:25;;;;;;;20.33;13.20;;;17.70;99.90;;;;;;5069967;28;20490;-55
2021/09/26 01:29:04;;;;;;;20.70;13.68;;;17.80;99.90;;;;;;5042575;28;20393;-54
2021/09/26 01:31:58;;;;;;;16.80;12.03;;;17.90;99.90;;;;;;5065881;28;20398;-54
2021/09/26 01:34:40;;;;;;;19.45;13.95;;;17.90;99.90;;;;;;5068592;28;20482;-54
2021/09/26 01:37:15;;;;;;;19.30;13.48;;;18.00;99.90;;;;;;5067574;28;20404;-55
2021/09/26 01:39:52;;;;;;;19.08;13.13;;;18.10;99.90;;;;;;5068979;28;20395;-55
2021/09/26 01:42:29;;;;;;;18.97;13.53;;;18.20;99.90;;;;;;5069643;28;20379;-54
2021/09/26 01:45:02;;;;;;;18.63;13.60;;;18.10;99.90;;;;;;5068749;28;20399;-55
2021/09/26 01:47:57;;;;;;;17.90;12.95;;;18.10;99.90;;;;;;5069614;28;20386;-54
2021/09/26 01:50:24;;;;;;;18.60;13.20;;;18.10;99.90;;;;;;5069533;28;20437;-55
2021/09/26 01:52:52;;;;;;;20.45;12.80;;;18.10;99.90;;;;;;5069315;28;20384;-55
2021/09/26 01:55:20;;;;;;;18.05;12.90;;;18.00;99.90;;;;;;5069486;28;20403;-54
2021/09/26 01:57:47;;;;;;;19.58;14.02;;;17.80;99.90;;;;;;5069002;28;20916;-55
2021/09/26 02:00:13;;;;;;;17.58;13.30;;;17.70;99.90;;;;;;5069571;28;20380;-54
2021/09/26 02:02:41;;;;;;;20.00;13.48;;;17.80;99.90;;;;;;5068546;28;20457;-54
2021/09/26 02:05:08;;;;;;;18.85;13.60;;;17.80;99.90;;;;;;5069513;28;20429;-55
2021/09/26 02:07:39;;;;;;;17.08;12.93;;;17.90;99.90;;;;;;5069460;28;20411;-55
2021/09/26 02:10:06;;;;;;;17.73;12.80;;;17.90;99.90;;;;;;5069794;28;20379;-54
2021/09/26 02:12:32;;;;;;;17.10;12.60;;;17.90;99.90;;;;;;5069516;28;20406;-54
2021/09/26 02:15:01;;;;;;;17.73;12.80;;;17.90;99.90;;;;;;5068646;28;20384;-54
2021/09/26 02:17:28;;;;;;;22.25;13.02;;;18.00;99.90;;;;;;5069505;28;20419;-55
2021/09/26 02:20:00;;;;;;;19.13;12.77;;;18.10;99.90;;;;;;5069106;28;20853;-55
2021/09/26 02:22:28;;;;;;;17.85;12.20;;;18.20;99.90;;;;;;5069247;28;20376;-54
2021/09/26 02:24:54;;;;;;;18.23;12.27;;;18.10;99.90;;;;;;5067221;28;20790;-54
2021/09/26 02:27:20;;;;;;;17.50;12.93;;;18.00;99.90;;;;;;5069214;28;20941;-55
2021/09/26 02:29:45;;;;;;;18.70;13.60;;;17.90;99.90;;;;;;5067271;28;20872;-54
2021/09/26 02:32:11;;;;;;;18.33;12.73;;;17.80;99.90;;;;;;5069233;28;20390;-54
2021/09/26 02:34:37;;;;;;;20.35;12.30;;;17.80;99.90;;;;;;5068793;28;20380;-54
2021/09/26 02:37:03;;;;;;;19.58;13.40;;;17.70;99.90;;;;;;5069068;28;20849;-54
2021/09/26 02:39:29;;;;;;;17.60;12.40;;;17.70;99.90;;;;;;5068127;28;20776;-54
2021/09/26 02:42:04;;;;;;;19.17;13.70;;;17.60;99.90;;;;;;5068538;28;20945;-54
2021/09/26 02:44:48;;;;;;;19.83;14.20;;;17.50;99.90;;;;;;5069136;28;20413;-54
2021/09/26 02:47:23;;;;;;;20.87;14.67;;;17.40;99.90;;;;;;5069314;28;20387;-54
2021/09/26 02:49:50;;;;;;;19.90;14.05;;;17.30;99.90;;;;;;5069598;28;20372;-54
2021/09/26 02:52:17;;;;;;;20.20;14.70;;;17.40;99.90;;;;;;5071842;28;20884;-54
2021/09/26 02:54:43;;;;;;;20.83;15.25;;;17.20;99.90;;;;;;5072235;28;20826;-54
2021/09/26 02:57:11;;;;;;;20.52;13.05;;;17.20;99.90;;;;;;5073027;28;20375;-54
2021/09/26 02:59:37;;;;;;;20.20;13.90;;;17.20;99.90;;;;;;5073130;28;20387;-54
2021/09/26 03:02:04;;;;;;;21.73;14.17;;;17.10;99.90;;;;;;5072941;28;20384;-54
2021/09/26 03:04:30;;;;;;;20.30;14.52;;;17.10;99.90;;;;;;5072873;28;20948;-54
2021/09/26 03:06:56;;;;;;;21.17;14.63;;;17.10;99.90;;;;;;5072172;28;20451;-54
2021/09/26 03:09:22;;;;;;;20.45;14.80;;;17.10;99.90;;;;;;5073380;28;20458;-54
2021/09/26 03:11:48;;;;;;;21.53;14.90;;;17.10;99.90;;;;;;5072963;28;20376;-54
2021/09/26 03:14:13;;;;;;;21.42;15.45;;;17.10;99.90;;;;;;5072958;28;20445;-55
2021/09/26 03:16:39;;;;;;;21.10;14.47;;;17.00;99.90;;;;;;5071725;28;20383;-54
2021/09/26 03:19:05;;;;;;;21.95;14.60;;;17.00;99.90;;;;;;5072505;28;20379;-54
2021/09/26 03:21:31;;;;;;;21.90;15.10;;;17.00;99.90;;;;;;5072450;28;20733;-54
2021/09/26 03:23:58;;;;;;;22.83;15.02;;;17.10;99.90;;;;;;5071770;28;20404;-55
2021/09/26 03:26:24;;;;;;;22.52;14.55;;;17.10;99.90;;;;;;5072545;28;20837;-55
2021/09/26 03:28:51;;;;;;;20.08;15.10;;;17.10;99.90;;;;;;5071955;28;20398;-54
2021/09/26 03:31:17;;;;;;;21.05;14.50;;;17.10;99.90;;;;;;5072056;28;20379;-54
2021/09/26 03:33:44;;;;;;;20.63;14.20;;;17.20;99.90;;;;;;5071666;28;20380;-54
2021/09/26 03:36:10;;;;;;;20.38;13.63;;;17.20;99.90;;;;;;5072446;28;20403;-54
2021/09/26 03:38:36;;;;;;;19.17;14.52;;;17.10;99.90;;;;;;5072244;28;20738;-54
2021/09/26 03:41:03;;;;;;;21.60;13.93;;;17.00;99.90;;;;;;5071806;28;20368;-55
2021/09/26 03:43:30;;;;;;;20.48;14.55;;;17.00;99.90;;;;;;5072551;28;20416;-55
2021/09/26 03:45:56;;;;;;;20.95;15.40;;;17.00;99.90;;;;;;5071413;28;20673;-54
2021/09/26 03:48:23;;;;;;;19.90;14.48;;;16.80;99.90;;;;;;5071771;28;20868;-54
2021/09/26 03:50:50;;;;;;;23.40;16.30;;;16.80;99.90;;;;;;5071364;28;20468;-54
2021/09/26 03:53:15;;;;;;;22.20;15.13;;;16.70;99.90;;;;;;5072259;28;20376;-54
2021/09/26 03:55:41;;;;;;;20.90;14.73;;;16.60;99.90;;;;;;5071293;28;20525;-54
2021/09/26 03:58:07;;;;;;;21.67;15.33;;;16.60;99.90;;;;;;5072001;28;20435;-54
2021/09/26 04:00:33;;;;;;;20.58;15.05;;;16.60;99.90;;;;;;5071778;28;20387;-54
2021/09/26 04:02:59;;;;;;;19.47;14.40;;;16.50;99.90;;;;;;5071455;28;20470;-54
2021/09/26 04:05:25;;;;;;;24.77;15.07;;;16.40;99.90;;;;;;5072061;28;20830;-54
2021/09/26 04:07:50;;;;;;;23.38;16.60;;;16.20;99.90;;;;;;5071434;28;20395;-54
2021/09/26 04:10:16;;;;;;;20.83;15.63;;;16.30;99.90;;;;;;5071771;28;20375;-54
2021/09/26 04:12:43;;;;;;;21.07;14.80;;;16.20;99.90;;;;;;5071082;28;20383;-54
2021/09/26 04:15:09;;;;;;;21.95;16.15;;;16.30;99.90;;;;;;5069620;28;20721;-54
2021/09/26 04:17:35;;;;;;;22.40;16.10;;;16.30;99.90;;;;;;5071666;28;20388;-54
2021/09/26 04:20:03;;;;;;;23.40;15.77;;;16.40;99.90;;;;;;5070540;28;20433;-54
2021/09/26 04:22:29;;;;;;;22.67;15.18;;;16.40;99.90;;;;;;5071973;28;20466;-55
2021/09/26 04:24:54;;;;;;;19.70;13.82;;;16.40;99.90;;;;;;5070898;28;20518;-54
2021/09/26 04:27:20;;;;;;;22.17;14.67;;;16.40;99.90;;;;;;5071605;28;20406;-55
2021/09/26 04:29:46;;;;;;;20.63;14.33;;;16.30;99.90;;;;;;5070567;28;20388;-55
2021/09/26 04:32:11;;;;;;;20.17;14.55;;;16.30;99.90;;;;;;5069838;28;20398;-54
2021/09/26 04:34:37;;;;;;;19.80;13.80;;;16.30;99.90;;;;;;5071395;28;20784;-55
2021/09/26 04:37:03;;;;;;;19.00;13.60;;;16.20;99.90;;;;;;5070796;28;20379;-55
2021/09/26 04:39:29;;;;;;;18.90;12.80;;;16.60;99.90;;;;;;5071371;28;20379;-55
2021/09/26 04:41:55;;;;;;;20.23;13.35;;;16.70;99.90;;;;;;5069281;28;20432;-55
2021/09/26 04:44:21;;;;;;;17.52;12.25;;;16.80;99.90;;;;;;5071287;28;20400;-55
2021/09/26 04:46:47;;;;;;;18.45;11.65;;;16.70;99.90;;;;;;5069157;28;20399;-54
2021/09/26 04:49:13;;;;;;;18.17;12.90;;;16.70;99.90;;;;;;5069673;28;20392;-55
2021/09/26 04:51:39;;;;;;;18.70;12.60;;;16.60;99.90;;;;;;5070488;28;20841;-55
2021/09/26 04:54:05;;;;;;;17.07;12.27;;;16.70;99.90;;;;;;5070329;28;20384;-55
2021/09/26 04:56:31;;;;;;;17.80;12.13;;;16.60;99.90;;;;;;5071090;28;20399;-54
2021/09/26 04:58:57;;;;;;;17.50;12.97;;;16.60;99.90;;;;;;5070025;28;20384;-55
2021/09/26 05:01:23;;;;;;;18.98;12.10;;;16.60;99.90;;;;;;5069566;28;20470;-55
2021/09/26 05:03:48;;;;;;;20.60;12.63;;;16.60;99.90;;;;;;5069835;28;20490;-55
2021/09/26 05:06:15;;;;;;;16.57;12.40;;;16.60;99.90;;;;;;5070550;28;20395;-54
2021/09/26 05:08:41;;;;;;;18.87;11.87;;;16.70;99.90;;;;;;5070354;28;20379;-55
2021/09/26 05:11:07;;;;;;;17.80;12.33;;;16.70;99.90;;;;;;5070531;28;20375;-55
2021/09/26 05:13:34;;;;;;;17.85;11.75;;;16.70;99.90;;;;;;5070082;28;20486;-54
2021/09/26 05:15:59;;;;;;;16.77;11.30;;;16.80;99.90;;;;;;5069504;28;20391;-54
2021/09/26 05:18:25;;;;;;;18.90;11.40;;;16.80;99.90;;;;;;5070602;28;20380;-55
2021/09/26 05:20:54;;;;;;;18.70;12.25;;;16.80;99.90;;;;;;5070010;28;20768;-55
2021/09/26 05:23:22;;;;;;;20.63;13.00;;;16.80;99.90;;;;;;5070246;28;20533;-54
2021/09/26 05:25:49;;;;;;;18.25;13.00;;;18.20;99.90;;;;;;5069906;28;20398;-54
2021/09/26 05:28:15;;;;;;;19.30;12.60;;;16.80;99.90;;;;;;5070368;28;20470;-54
2021/09/26 05:30:41;;;;;;;21.70;12.73;;;16.80;99.90;;;;;;5069671;28;20438;-55
2021/09/26 05:33:07;;;;;;;20.70;13.17;;;16.80;99.90;;;;;;5070157;28;20384;-54
2021/09/26 05:35:33;;;;;;;16.27;12.15;;;16.80;99.90;;;;;;5070098;28;20375;-53
2021/09/26 05:37:58;;;;;;;18.42;12.85;;;16.80;99.90;;;;;;5069322;28;20418;-53
2021/09/26 05:40:24;;;;;;;18.80;11.83;;;16.80;99.90;;;;;;5070019;28;20873;-53
2021/09/26 05:42:50;;;;;;;17.63;12.82;;;16.70;99.90;;;;;;5069298;28;20384;-53
2021/09/26 05:45:16;;;;;;;17.48;11.90;;;16.80;99.90;;;;;;5068542;28;20419;-54
2021/09/26 05:47:42;;;;;;;17.35;11.43;;;16.90;99.90;;;;;;5065615;28;20413;-54
2021/09/26 05:50:09;;;;;;;17.80;11.93;;;17.10;99.90;;;;;;5063063;28;20399;-53
2021/09/26 05:52:35;;;;;;;17.33;10.80;;;17.20;99.90;;;;;;5068449;28;20383;-53
2021/09/26 05:55:01;;;;;;;17.50;11.67;;;17.30;99.90;;;;;;5067835;28;20407;-54
2021/09/26 05:57:27;;;;;;;18.05;11.73;;;17.40;99.90;;;;;;5069331;28;20497;-54
2021/09/26 05:59:52;;;;;;;16.23;11.70;;;17.60;99.90;;;;;;5067286;28;20742;-54
2021/09/26 06:02:23;;;;;;;17.60;11.18;;;18.00;99.90;;;;;;5069430;28;20379;-54
2021/09/26 06:04:50;;;;;;;14.90;10.02;;;18.50;99.90;;;;;;5068231;28;20400;-54
2021/09/26 06:07:16;;;;;;;16.65;10.23;;;19.10;99.90;;;;;;5067834;28;20379;-54
2021/09/26 06:09:43;;;;;;;17.48;11.02;;;19.70;99.90;;;;;;5057002;28;20472;-54
2021/09/26 06:12:10;;;;;;;15.90;10.40;;;19.90;99.90;;;;;;5058816;28;20402;-54
2021/09/26 06:14:36;;;;;;;15.50;9.83;;;20.50;99.90;;;;;;5055570;28;20454;-54
2021/09/26 06:17:02;;;;;;;15.45;10.23;;;21.20;99.90;;;;;;5053135;28;20403;-54
2021/09/26 06:19:27;;;;;;;17.08;10.73;;;21.80;99.90;;;;;;5057631;28;20401;-54
2021/09/26 06:21:53;;;;;;;17.00;10.10;;;22.20;99.90;;;;;;5060496;28;20958;-54
2021/09/26 06:24:19;;;;;;;12.70;9.37;;;22.40;99.90;;;;;;5062883;28;20457;-54
2021/09/26 06:26:44;;;;;;;12.80;9.80;;;22.40;99.90;;;;;;5061949;28;20865;-55
2021/09/26 06:29:10;;;;;;;16.17;10.77;;;22.60;99.90;;;;;;5059068;28;20454;-54
2021/09/26 06:31:36;;;;;;;14.52;9.88;;;23.20;99.90;;;;;;5064011;28;20433;-54
2021/09/26 06:34:02;;;;;;;14.38;9.77;;;23.50;99.90;;;;;;5064789;28;20392;-55
2021/09/26 06:36:28;;;;;;;13.60;8.90;;;23.80;99.90;;;;;;5097028;28;20402;-55
2021/09/26 06:38:54;;;;;;;14.30;9.90;;;24.40;99.90;;;;;;5067764;28;20387;-55
2021/09/26 06:41:19;;;;;;;16.42;11.55;;;24.60;99.90;;;;;;5068712;28;20395;-55
2021/09/26 06:43:46;;;;;;;15.00;11.35;;;24.70;99.90;;;;;;5066976;28;20467;-55
2021/09/26 06:46:12;;;;;;;15.35;10.65;;;25.10;99.90;;;;;;5071284;28;20393;-55
2021/09/26 06:48:38;;;;;;;15.60;10.15;;;25.80;99.90;;;;;;5054833;28;20388;-55
2021/09/26 06:51:03;;;;;;;13.80;10.37;;;26.70;99.90;;;;;;5067444;28;20375;-55
2021/09/26 06:53:29;;;;;;;15.13;10.20;;;27.00;99.90;;;;;;5061424;28;20436;-55
2021/09/26 06:55:55;;;;;;;15.15;9.35;;;27.30;99.90;;;;;;5049402;28;20409;-55
2021/09/26 06:58:21;;;;;;;13.70;8.90;;;27.60;99.90;;;;;;5064242;28;20467;-55
2021/09/26 07:00:47;;;;;;;14.10;10.02;;;27.90;99.90;;;;;;5048294;28;20420;-56
2021/09/26 07:03:16;;;;;;;14.30;8.93;;;27.90;99.90;;;;;;5060603;28;20403;-56
2021/09/26 07:05:42;;;;;;;15.07;9.13;;;27.30;99.90;;;;;;5054305;28;20820;-56
2021/09/26 07:08:08;;;;;;;11.80;8.30;;;26.30;99.90;;;;;;5058744;28;20380;-56
2021/09/26 07:10:34;;;;;;;13.50;8.50;;;27.90;99.90;;;;;;5062428;28;20743;-56
2021/09/26 07:12:59;;;;;;;12.77;8.70;;;28.40;99.90;;;;;;5068444;28;20399;-56
2021/09/26 07:15:25;;;;;;;13.95;9.15;;;28.90;99.90;;;;;;5056176;28;20389;-56
2021/09/26 07:17:53;;;;;;;12.68;9.98;;;28.70;99.90;;;;;;5054831;28;20408;-56
2021/09/26 07:20:19;;;;;;;15.20;8.57;;;28.90;99.90;;;;;;5056049;28;20773;-56
2021/09/26 07:22:44;;;;;;;11.68;8.02;;;29.00;99.90;;;;;;5062359;28;20875;-54
2021/09/26 07:25:10;;;;;;;11.80;8.10;;;29.10;99.90;;;;;;5056855;28;20429;-54
2021/09/26 07:27:36;;;;;;;14.00;8.23;;;29.50;99.90;;;;;;5055658;28;20867;-54
2021/09/26 07:30:03;;;;;;;12.52;8.32;;;30.10;99.90;;;;;;5055302;28;20456;-55
2021/09/26 07:32:29;;;;;;;15.20;8.35;;;30.40;99.90;;;;;;5050301;28;20397;-55
2021/09/26 07:34:55;;;;;;;13.20;8.00;;;31.50;96.40;;;;;;5051427;28;20544;-55
2021/09/26 07:37:21;;;;;;;14.50;8.00;;;31.90;94.40;;;;;;5063599;28;20945;-55
2021/09/26 07:39:46;;;;;;;12.80;8.23;;;31.40;95.00;;;;;;5062193;28;20770;-55
2021/09/26 07:42:12;;;;;;;11.38;8.00;;;30.50;96.20;;;;;;5054882;28;20397;-55
2021/09/26 07:44:38;;;;;;;12.75;8.30;;;29.80;97.60;;;;;;5063522;28;20907;-56
2021/09/26 07:47:04;;;;;;;14.80;9.23;;;28.70;99.10;;;;;;5060286;28;20764;-57
2021/09/26 07:49:30;;;;;;;14.40;9.40;;;28.30;99.90;;;;;;5059023;28;20385;-57
2021/09/26 07:51:56;;;;;;;14.52;10.00;;;27.80;99.90;;;;;;5057206;28;20384;-57
2021/09/26 07:54:22;;;;;;;12.82;8.50;;;27.20;99.90;;;;;;5058595;28;20737;-57
2021/09/26 07:56:47;;;;;;;13.27;9.57;;;28.20;99.90;;;;;;5060714;28;20808;-56
2021/09/26 07:59:13;;;;;;;13.73;8.48;;;27.40;99.90;;;;;;5059498;28;20416;-57
2021/09/26 08:01:39;;;;;;;13.40;8.75;;;27.90;99.90;;;;;;5066174;28;20434;-57
2021/09/26 08:04:05;;;;;;;14.52;10.18;;;28.20;99.90;;;;;;5049436;28;20413;-57
2021/09/26 08:06:30;;;;;;;15.18;10.02;;;27.80;99.90;;;;;;5059374;28;20718;-54
2021/09/26 08:08:56;;;;;;;14.60;9.10;;;26.80;99.90;;;;;;5057332;28;20399;-54
2021/09/26 08:11:23;;;;;;;16.10;9.80;;;25.80;99.90;;;;;;5052957;28;20765;-54
2021/09/26 08:13:49;;;;;;;14.75;8.70;;;25.10;99.90;;;;;;5058833;28;20744;-54
2021/09/26 08:16:15;;;;;;;15.27;9.70;;;24.60;99.90;;;;;;5055326;28;20422;-54
2021/09/26 08:18:41;;;;;;;16.33;9.25;;;24.10;99.90;;;;;;5058620;28;20431;-54
2021/09/26 08:21:06;;;;;;;14.93;9.23;;;23.80;99.90;;;;;;5057714;28;20403;-53
2021/09/26 08:23:32;;;;;;;14.25;8.60;;;23.70;99.90;;;;;;5055339;28;20443;-53
2021/09/26 08:25:58;;;;;;;15.57;8.57;;;23.70;99.90;;;;;;5054448;28;20461;-54
2021/09/26 08:28:24;;;;;;;17.97;9.67;;;24.00;99.90;;;;;;5069491;28;20888;-52
2021/09/26 08:30:50;;;;;;;16.02;8.07;;;24.20;99.90;;;;;;5068032;28;20880;-52
2021/09/26 08:33:16;;;;;;;11.90;7.30;;;25.20;99.90;;;;;;5069702;28;20376;-54
2021/09/26 08:35:42;;;;;;;13.70;7.10;;;27.00;99.90;;;;;;5067031;28;20896;-59
2021/09/26 08:38:08;;;;;;;16.98;8.02;;;27.80;99.90;;;;;;5067333;28;20422;-54
2021/09/26 08:40:33;;;;;;;11.57;7.70;;;27.20;99.90;;;;;;5069225;28;20376;-52
2021/09/26 08:42:59;;;;;;;12.75;7.50;;;26.00;99.90;;;;;;5068128;28;20471;-51
2021/09/26 08:45:25;;;;;;;18.25;7.45;;;25.50;99.90;;;;;;5068327;28;20864;-51
2021/09/26 08:47:52;;;;;;;12.80;7.57;;;24.80;99.90;;;;;;5067447;28;20384;-52
2021/09/26 08:50:22;;;;;;;11.00;7.50;;;24.30;99.90;;;;;;5068077;28;20754;-54
2021/09/26 08:52:48;;;;;;;14.20;7.90;;;23.80;99.90;;;;;;5065794;28;20440;-54
2021/09/26 08:55:15;;;;;;;16.92;8.30;;;23.80;99.90;;;;;;5069540;28;20853;-52
2021/09/26 08:57:41;;;;;;;14.00;7.90;;;24.00;99.90;;;;;;5069238;28;20384;-56
2021/09/26 09:00:10;;;;;;;13.35;7.63;;;24.10;99.90;;;;;;5067486;28;20396;-52
2021/09/26 09:02:36;;;;;;;16.20;8.18;;;24.30;99.90;;;;;;5069498;28;20390;-52
2021/09/26 09:05:05;;;;;;;13.15;7.22;;;24.70;99.90;;;;;;5063492;28;20529;-52
2021/09/26 09:07:30;;;;;;;13.50;7.67;;;24.50;99.90;;;;;;5063610;28;20401;-53
2021/09/26 09:10:00;;;;;;;13.00;6.63;;;24.30;99.90;;;;;;5049576;28;20389;-52
2021/09/26 09:12:34;;;;;;;14.93;7.10;;;24.50;99.90;;;;;;5055537;28;20413;-54
2021/09/26 09:15:14;;;;;;;10.85;6.68;;;24.50;99.90;;;;;;5052805;28;20390;-52
2021/09/26 09:17:42;;;;;;;15.65;7.40;;;24.50;99.90;;;;;;5052493;28;20480;-52
2021/09/26 09:20:24;;;;;;;11.70;7.60;;;24.50;99.90;;;;;;5050665;28;20451;-53
2021/09/26 09:22:53;;;;;;;11.35;7.10;;;24.40;99.90;;;;;;5048910;28;20498;-52
2021/09/26 09:25:32;;;;;;;15.00;7.40;;;24.00;99.90;;;;;;5049908;28;20432;-52
2021/09/26 09:27:59;;;;;;;14.30;7.90;;;23.80;99.90;;;;;;5052201;28;20396;-54
2021/09/26 09:30:37;;;;;;;15.00;8.00;;;23.50;99.90;;;;;;5048512;28;20496;-54
2021/09/26 09:33:03;;;;;;;10.48;7.25;;;23.60;99.90;;;;;;5049655;28;21037;-54
2021/09/26 09:35:35;;;;;;;13.38;8.20;;;23.50;99.90;;;;;;5050155;28;20416;-53
2021/09/26 09:38:01;;;;;;;13.10;7.03;;;23.50;99.90;;;;;;5049483;28;20389;-54
2021/09/26 09:40:27;;;;;;;13.95;7.00;;;23.30;99.90;;;;;;5048791;28;21067;-54
2021/09/26 09:42:54;;;;;;;12.83;7.77;;;23.10;99.90;;;;;;5050070;28;20405;-54
2021/09/26 09:45:29;;;;;;;14.40;8.10;;;22.90;99.90;;;;;;5049220;28;20890;-54
2021/09/26 09:47:58;;;;;;;15.82;7.82;;;22.80;99.90;;;;;;5049221;28;20539;-53
2021/09/26 09:50:40;;;;;;;15.27;8.17;;;22.70;99.90;;;;;;5048309;28;20901;-53
2021/09/26 09:53:07;;;;;;;13.05;8.07;;;22.60;99.90;;;;;;5050998;28;20437;-54
2021/09/26 09:55:35;;;;;;;15.73;8.40;;;22.60;99.90;;;;;;5050358;28;20417;-54
2021/09/26 09:58:13;;;;;;;16.70;9.00;;;22.70;99.90;;;;;;5049587;28;20893;-53
2021/09/26 10:00:56;;;;;;;18.75;8.88;;;22.70;99.90;;;;;;5049839;28;20850;-54
2021/09/26 10:03:41;;;;;;;13.93;9.20;;;22.80;99.90;;;;;;5051156;28;20393;-52
2021/09/26 10:06:27;;;;;;;14.32;9.23;;;22.70;99.90;;;;;;5052771;28;20735;-53
2021/09/26 10:08:56;;;;;;;16.73;9.23;;;22.70;99.90;;;;;;5047973;28;20459;-54
2021/09/26 10:11:29;;;;;;;13.43;8.90;;;22.70;99.90;;;;;;5051639;28;20382;-54
2021/09/26 10:13:58;;;;;;;16.40;9.73;;;22.60;99.90;;;;;;5051874;28;20440;-53
2021/09/26 10:16:24;;;;;;;15.20;8.93;;;22.40;99.90;;;;;;5050139;28;20388;-54
2021/09/26 10:18:50;;;;;;;14.27;8.50;;;22.20;99.90;;;;;;5050179;28;20396;-54
2021/09/26 10:21:16;;;;;;;13.63;9.00;;;22.10;99.90;;;;;;5053696;28;20427;-55
2021/09/26 10:23:47;;;;;;;13.95;8.85;;;22.20;99.90;;;;;;5047740;28;20454;-53
2021/09/26 10:26:15;;;;;;;14.30;9.30;;;22.30;99.90;;;;;;5046649;28;20429;-53
2021/09/26 10:28:43;;;;;;;14.27;9.20;;;22.50;99.90;;;;;;5049420;28;20435;-54
2021/09/26 10:31:10;;;;;;;17.40;9.27;;;22.40;99.90;;;;;;5047821;28;20397;-53
2021/09/26 10:33:36;;;;;;;13.77;8.90;;;22.40;99.90;;;;;;5051763;28;20423;-54
2021/09/26 10:36:03;;;;;;;15.50;9.85;;;22.30;99.90;;;;;;5079284;28;20419;-53
2021/09/26 10:38:29;;;;;;;15.13;9.60;;;22.30;99.90;;;;;;5064721;28;20407;-53
2021/09/26 10:41:02;;;;;;;15.25;9.75;;;22.20;99.90;;;;;;5059217;28;21292;-55
2021/09/26 10:43:29;;;;;;;15.45;10.02;;;22.10;99.90;;;;;;5050287;28;20443;-53
2021/09/26 10:46:27;;;;;;;16.05;9.77;;;22.20;99.90;;;;;;5049649;28;20522;-53
2021/09/26 10:49:07;;;;;;;16.90;10.23;;;22.10;99.90;;;;;;5064954;28;20406;-54
2021/09/26 10:51:50;;;;;;;13.95;9.13;;;22.20;99.90;;;;;;5053155;28;20463;-54
2021/09/26 10:54:22;;;;;;;15.85;9.70;;;22.30;99.90;;;;;;5048984;28;20761;-53
2021/09/26 10:57:11;;;;;;;15.45;9.30;;;22.50;99.90;;;;;;5051888;28;20420;-54
2021/09/26 10:59:40;;;;;;;14.25;9.93;;;22.90;99.90;;;;;;5045297;28;20436;-53
2021/09/26 11:02:21;;;;;;;15.93;9.60;;;22.80;99.90;;;;;;5048719;28;20404;-53
2021/09/26 11:04:51;;;;;;;14.10;9.00;;;22.80;99.90;;;;;;5049835;28;20410;-58
2021/09/26 11:07:18;;;;;;;17.33;10.20;;;22.70;99.90;;;;;;5048336;28;20455;-53
2021/09/26 11:10:02;;;;;;;15.23;9.67;;;22.60;99.90;;;;;;5052118;28;20419;-57
2021/09/26 11:12:49;;;;;;;13.77;9.02;;;22.50;99.90;;;;;;5066862;28;20932;-52
2021/09/26 11:15:16;;;;;;;16.48;9.60;;;22.20;99.90;;;;;;5055259;28;20829;-53
2021/09/26 11:17:56;;;;;;;13.57;8.88;;;22.20;99.90;;;;;;5051459;28;20472;-54
2021/09/26 11:20:48;;;;;;;15.18;8.90;;;22.10;99.90;;;;;;5057686;28;21004;-55
2021/09/26 11:23:25;;;;;;;12.85;8.80;;;22.10;99.90;;;;;;5053670;28;20409;-54
2021/09/26 11:25:57;;;;;;;13.23;8.68;;;22.10;99.90;;;;;;5051608;28;20424;-52
2021/09/26 11:28:36;;;;;;;12.00;8.10;;;22.00;99.90;;;;;;5064660;28;20771;-52
2021/09/26 11:31:28;;;;;;;14.13;8.18;;;22.00;99.90;;;;;;5055406;28;20442;-55
2021/09/26 11:33:57;;;;;;;12.57;8.07;;;21.90;99.90;;;;;;5060134;28;20392;-53
2021/09/26 11:36:24;;;;;;;12.75;8.50;;;21.80;99.90;;;;;;5061428;28;20488;-53
2021/09/26 11:38:50;;;;;;;12.70;8.07;;;21.90;99.90;;;;;;5063532;28;20992;-52
2021/09/26 11:41:16;;;;;;;11.45;7.20;;;22.00;99.90;;;;;;5061377;28;20488;-52
2021/09/26 11:43:59;;;;;;;13.45;8.75;;;22.00;99.90;;;;;;5063106;28;20439;-53
2021/09/26 11:46:26;;;;;;;12.07;7.60;;;22.00;99.90;;;;;;5052179;28;20413;-55
2021/09/26 11:49:15;;;;;;;11.68;7.88;;;22.20;99.90;;;;;;5056677;28;20393;-53
2021/09/26 11:51:41;;;;;;;14.07;7.85;;;22.30;99.90;;;;;;5065837;28;20417;-52
2021/09/26 11:54:07;;;;;;;11.77;7.90;;;22.50;99.90;;;;;;5059778;28;20686;-53
2021/09/26 11:56:35;;;;;;;11.43;7.45;;;22.50;99.90;;;;;;5054116;28;20450;-52
2021/09/26 11:59:05;;;;;;;10.98;7.60;;;22.60;99.90;;;;;;5060157;28;20404;-52
2021/09/26 12:01:34;;;;;;;11.65;7.55;;;22.50;99.90;;;;;;5066087;28;20393;-52
2021/09/26 12:04:04;;;;;;;13.47;7.50;;;22.40;99.90;;;;;;5072084;28;21068;-53
2021/09/26 12:06:30;;;;;;;11.30;7.55;;;22.50;99.90;;;;;;5063421;28;20509;-52
2021/09/26 12:08:56;;;;;;;13.05;7.50;;;22.60;99.90;;;;;;5053557;28;20917;-54
2021/09/26 12:11:21;;;;;;;13.63;7.07;;;22.70;99.90;;;;;;5058105;28;20933;-58
2021/09/26 12:13:53;;;;;;;11.10;7.20;;;23.00;99.90;;;;;;5053401;28;20465;-56
2021/09/26 12:16:21;;;;;;;11.55;6.22;;;23.20;99.90;;;;;;5052482;28;20405;-53
2021/09/26 12:18:55;;;;;;;10.70;6.80;;;23.60;99.90;;;;;;5056850;28;20887;-58
2021/09/26 12:21:26;;;;;;;12.18;6.57;;;23.90;99.90;;;;;;5049877;28;20405;-52
2021/09/26 12:23:58;;;;;;;11.40;6.90;;;24.00;99.90;;;;;;5056732;28;20437;-55
2021/09/26 12:26:43;;;;;;;9.85;6.20;;;24.10;99.90;;;;;;5066272;28;20904;-53
2021/09/26 12:29:27;;;;;;;11.18;7.45;;;24.10;99.90;;;;;;5059526;28;20410;-52
2021/09/26 12:31:56;;;;;;;12.18;6.70;;;24.20;99.90;;;;;;5049280;28;20397;-52
2021/09/26 12:34:29;;;;;;;11.27;6.50;;;24.60;99.90;;;;;;5054624;28;20427;-51
2021/09/26 12:36:55;;;;;;;12.40;6.88;;;25.00;99.90;;;;;;5059596;28;20380;-53
2021/09/26 12:39:27;;;;;;;10.90;6.40;;;25.20;99.90;;;;;;5063475;28;21199;-55